KBKW/BKW METAR and TAF weather

Enter ICAO airport designator
Station Type Date Time Source
KBKW METAR 2018/12/12 15:51 UTC NOAA

KBKW 121551Z AUTO 18006KT 10SM CLR 02/M06 A3010 RMK AO2 SLP219 T00171061


Station Type Date Time Source
KBKW Decoded METAR 2018/12/12 15:51 UTC NOAA

RALEIGH COUNTY MEM AIRPORT , WV, United States (KBKW) 37-48N 081-07W 764M
Dec 12, 2018 - 10:51 AM EST / 2018.12.12 1551 UTC
Wind: from the S (180 degrees) at 7 MPH (6 KT):0
Visibility: 10 mile(s):0
Sky conditions: clear
Temperature: 35.1 F (1.7 C)
Dew Point: 21.0 F (-6.1 C)
Relative Humidity: 56%
Pressure (altimeter): 30.1 in. Hg (1019 hPa)
ob: KBKW 121551Z AUTO 18006KT 10SM CLR 02/M06 A3010 RMK AO2 SLP219 T00171061
cycle: 16

Station Type Date Time Source
KBKW TAF 2018/12/12 15:54 UTC NOAA

TAF
AMD KBKW 121452Z 1215/1312 22006KT P6SM SCT200
FM121600 19007KT P6SM SCT100 BKN200
FM122200 19009KT P6SM BKN100
FM130600 21007KT P6SM BKN035
FM131000 21005KT P6SM BKN015


Example: see airport list